Station: Friendly Beaches  

  Atmospheric Gas Attenuation - ITU Rec 676-11   ----------------- dB/100km -----------------
Date Time Temp RH % AH g/m3 Dew Point Wind Direction Speed kph Gust kph Barometer mB Rainfall Since 9am 24GHz 47GHz 76GHz 122GHz 134GHz 241GHz
08/05 12:30 15.1 53 6.84 5.6 19 30 1014.2 0 15.8 22.8 32.5 84.9 74.7 255.7
08/05 12:20 14.4 53 6.55 4.9 24 32 1014 0 15.2 22.6 31.7 82.8 71.8 245.5
08/05 12:10 14.4 53 6.55 4.9 11 13 1014.1 0 15.2 22.6 31.7 82.8 71.8 245.5
08/05 12:00 13.6 54 6.36 4.5 19 32 1014 0 14.8 22.5 31.3 81.7 70.3 239.8
08/05 11:50 13.1 56 6.39 4.5 20 28 1014 0 14.9 22.7 31.6 82.5 71.1 242.6
08/05 11:40 13.9 55 6.59 5 19 24 1014 0 15.3 22.8 32.0 83.7 72.8 248.7
08/05 11:30 13.9 53 6.35 4.5 24 41 1013.7 0 14.8 22.4 31.1 81.3 69.8 238.4
08/05 11:20 13.3 56 6.47 4.7 22 30 1013.7 0 15.1 22.7 31.8 83.1 71.8 245.4
08/05 11:10 13.3 56 6.47 4.9 30 48 1013.6 0 15.1 22.7 31.8 83.1 71.8 245.3
08/05 11:00 12.9 58 6.54 4.8 22 43 1013.5 0 15.2 22.9 32.2 84.2 73.1 249.6
08/05 10:50 13 58 6.58 4.9 24 30 1013.5 0 15.3 23.0 32.3 84.5 73.5 251.0
08/05 10:40 12.9 57 6.42 4.6 24 35 1013.2 0 15.0 22.7 31.8 83.0 71.6 244.3
08/05 10:30 13.3 58 6.7 5.2 26 44 1013.1 0 15.6 23.0 32.6 85.3 74.6 255.2
08/05 10:20 12.9 59 6.65 5.1 32 43 1012.9 0 15.5 23.1 32.6 85.2 74.4 254.2
08/05 10:10 12.8 60 6.72 5.2 28 43 1012.8 0 15.6 23.2 32.9 86.0 75.3 257.6
08/05 10:00 12.5 61 6.71 5.2 24 43 1012.6 0 15.6 23.2 33.0 86.2 75.5 258.1
08/05 09:50 12.9 64 7.21 6.2 22 32 1012.5 0 16.7 23.9 34.7 90.9 81.4 278.8
08/05 09:40 12.3 64 6.95 5.7 30 41 1012.3 0 16.1 23.7 34.0 88.9 78.7 269.3
08/05 09:30 11.9 68 7.2 6.2 20 39 1012.3 0 16.7 24.2 35.1 91.9 82.3 281.8
08/05 09:20 11.8 68 7.16 6.1 20 32 1012.3 0 16.6 24.1 35.0 91.6 81.9 280.4
08/05 09:10 11.7 70 7.32 6.4 20 28 1012.1 0 16.9 24.4 35.7 93.4 84.0 287.9
08/05 09:00 11.7 69 7.22 6.2 19 33 1011.8 0 16.7 24.2 35.3 92.3 82.7 283.3
08/05 08:50 11.5 70 7.23 6.2 17 20 1011.7 0.4 16.8 24.3 35.4 92.6 83.1 284.5
08/05 08:40 11.2 71 7.2 6.1 17 26 1011.5 0.4 16.7 24.3 35.4 92.7 83.0 284.1
08/05 08:30 11.1 72 7.25 6.3 19 32 1011.2 0.4 16.8 24.4 35.6 93.3 83.7 286.7
08/05 08:20 11.1 71 7.15 6 13 17 1011.1 0.4 16.6 24.2 35.2 92.2 82.4 282.1
08/05 08:10 10.9 71 7.06 5.8 20 30 1010.9 0.4 16.4 24.2 34.9 91.5 81.4 278.7
08/05 08:00 11 70 7.01 5.7 17 32 1010.7 0.4 16.3 24.0 34.7 90.8 80.7 276.0
08/05 07:50 10.9 70 6.96 5.6 26 35 1010.5 0.4 16.2 24.0 34.5 90.4 80.1 274.1
08/05 07:40 10.8 69 6.82 5.3 19 24 1010.3 0.4 15.9 23.8 34.0 89.0 78.4 268.1
08/05 07:30 10.8 68 6.72 5.1 22 37 1010 0.4 15.7 23.6 33.6 88.0 77.1 263.5
08/05 07:20 10.5 68 6.6 4.8 17 24 1009.8 0.4 15.5 23.5 33.3 87.0 75.8 259.1
08/05 07:10 10.7 67 6.58 4.8 13 19 1009.5 0.4 15.4 23.4 33.1 86.6 75.4 257.5
08/05 07:00 10.8 66 6.52 4.7 22 39 1009.4 0.4 15.3 23.3 32.8 85.8 74.5 254.5
08/05 06:50 10.8 66 6.52 4.7 22 32 1009.3 0.4 15.3 23.3 32.8 85.8 74.5 254.4
08/05 06:40 10.7 67 6.58 4.8 24 33 1009.1 0.4 15.4 23.4 33.1 86.5 75.3 257.4
08/05 06:30 10.7 67 6.58 4.8 19 30 1009 0.4 15.4 23.4 33.1 86.5 75.3 257.4
08/05 06:20 10.6 67 6.54 4.7 20 32 1008.8 0.4 15.3 23.3 33.0 86.2 74.9 255.9
08/05 06:10 10.7 67 6.58 4.8 20 26 1008.7 0.4 15.4 23.4 33.1 86.5 75.3 257.3
08/05 06:00 10.8 66 6.52 4.7 22 35 1008.5 0.4 15.3 23.2 32.8 85.8 74.5 254.3
08/05 05:50 10.9 67 6.67 5 20 24 1008.2 0.4 15.6 23.4 33.3 87.2 76.2 260.5
08/05 05:40 10.7 70 6.88 5.4 22 32 1008 0.4 16.1 23.8 34.2 89.5 79.1 270.6
08/05 05:30 10.8 70 6.92 5.6 20 37 1007.8 0.4 16.1 23.8 34.3 89.8 79.5 272.0
08/05 05:20 10.7 71 6.98 5.6 22 33 1007.7 0.4 16.3 24.0 34.6 90.6 80.4 275.0
08/05 05:10 11 70 7.01 5.7 24 32 1007.6 0.4 16.3 23.9 34.6 90.5 80.4 275.3
08/05 05:00 10.9 71 7.06 5.9 20 39 1007.3 0.4 16.4 24.0 34.8 91.1 81.2 277.9
08/05 04:50 10.9 71 7.06 5.8 20 32 1007.1 0.4 16.4 24.0 34.8 91.1 81.2 277.8
08/05 04:40 11.1 70 7.05 5.8 22 33 1006.8 0.4 16.4 23.9 34.6 90.7 80.8 276.6
08/05 04:30 11.2 70 7.1 5.9 20 35 1006.7 0.4 16.5 24.0 34.8 91.1 81.3 278.5
08/05 04:20 11.2 69 7 5.7 22 35 1006.4 0.4 16.3 23.8 34.4 90.1 80.0 273.9
08/05 04:10 11.4 68 6.98 5.7 28 35 1006.2 0.4 16.2 23.7 34.2 89.6 79.6 272.3
08/05 04:00 11.4 67 6.88 5.5 22 39 1006.2 0.4 16.0 23.6 33.8 88.6 78.3 267.8
08/05 03:50 11.3 67 6.84 5.4 24 33 1006 0.4 15.9 23.5 33.7 88.3 77.9 266.3
08/05 03:40 11.4 65 6.67 5.2 22 32 1005.9 0.4 15.6 23.2 33.0 86.4 75.6 258.4
08/05 03:30 11.2 68 6.89 5.5 20 33 1005.8 0.4 16.1 23.6 33.9 88.9 78.6 268.8
08/05 03:20 11.4 67 6.88 5.5 20 26 1005.8 0.4 16.0 23.5 33.8 88.5 78.3 267.7
08/05 03:10 11.3 69 7.04 5.8 20 30 1005.7 0.4 16.4 23.8 34.5 90.3 80.4 275.2
08/05 03:00 10.6 73 7.13 6 19 30 1005.7 0.4 16.6 24.2 35.1 92.1 82.3 281.7
08/05 02:50 9.8 79 7.33 6.3 20 22 1005.7 0.4 17.1 24.7 36.3 95.1 85.8 293.8
08/05 02:40 9.6 78 7.15 5.9 15 19 1005.6 0.4 16.7 24.5 35.6 93.4 83.6 286.2
08/05 02:30 9.8 76 7.05 5.8 13 20 1005.6 0.4 16.5 24.2 35.2 92.1 82.1 280.9
08/05 02:20 9.7 75 6.92 5.6 11 15 1005.6 0.4 16.2 24.1 34.7 90.9 80.5 275.3
08/05 02:10 9.3 76 6.83 5.4 13 17 1005.6 0.4 16.0 24.0 34.5 90.4 79.7 272.6
08/05 02:00 9.2 77 6.88 5.4 9 15 1005.6 0.4 16.1 24.1 34.7 91.0 80.5 275.2
08/05 01:50 9.6 75 6.87 5.4 13 15 1005.6 0.4 16.1 24.0 34.5 90.5 79.9 273.4
08/05 01:40 9.4 75 6.79 5.2 11 15 1005.4 0.4 15.9 23.9 34.3 89.8 79.1 270.4
08/05 01:30 9.4 74 6.69 5 13 19 1005.2 0.4 15.7 23.8 33.9 88.8 77.8 265.8
08/05 01:20 9.7 73 6.73 5.1 11 15 1005.2 0.4 15.8 23.7 33.9 88.8 78.0 266.6
08/05 01:10 9.6 73 6.69 5 15 20 1005.2 0.4 15.7 23.7 33.8 88.5 77.6 265.1
08/05 01:00 9.3 74 6.65 4.9 9 17 1005.2 0.4 15.6 23.7 33.8 88.5 77.4 264.3
08/05 00:50 9.3 74 6.65 4.9 9 13 1005.2 0.4 15.6 23.7 33.8 88.5 77.4 264.3
08/05 00:40 9.5 72 6.56 4.7 9 11 1005.2 0.4 15.4 23.5 33.3 87.3 76.0 259.5
08/05 00:30 9.8 71 6.59 4.8 13 19 1005.1 0.4 15.5 23.5 33.3 87.3 76.1 259.9
08/05 00:20 9.8 70 6.5 4.6 13 19 1005 0.4 15.3 23.3 33.0 86.3 74.9 255.8
08/05 00:10 9.8 70 6.5 4.6 13 17 1004.9 0.4 15.3 23.3 33.0 86.3 74.9 255.8
08/05 00:00 9.7 70 6.46 4.5 15 22 1005 0.4 15.2 23.3 32.9 86.0 74.5 254.3
07/05 23:50 9.5 70 6.37 4.3 15 24 1005.1 0.4 15.0 23.2 32.6 85.3 73.6 251.0
07/05 23:40 9.3 70 6.29 4.1 11 19 1005 0.4 14.8 23.1 32.4 84.7 72.7 248.0
07/05 23:30 9.2 70 6.25 4 11 20 1005 0.4 14.8 23.1 32.3 84.4 72.3 246.5
07/05 23:20 9.2 69 6.16 3.8 13 15 1005.2 0.4 14.6 23.0 31.9 83.5 71.2 242.5
07/05 23:10 9.1 69 6.12 3.7 15 22 1005.3 0.4 14.5 22.9 31.8 83.2 70.7 241.1
07/05 23:00 8.9 69 6.05 3.5 11 19 1005.4 0.4 14.3 22.9 31.6 82.7 70.0 238.6
07/05 22:50 8.7 70 6.06 3.5 9 11 1005.7 0.4 14.4 23.0 31.7 83.0 70.4 239.7
07/05 22:40 8 71 5.87 3 9 15 1005.9 0.4 14.0 22.9 31.3 81.8 68.6 233.3
07/05 22:30 7.6 71 5.72 2.7 6 9 1006.2 0.4 13.7 22.7 30.9 80.7 67.0 227.8
07/05 22:20 7.3 71 5.61 2.4 6 7 1006.3 0.4 13.5 22.6 30.6 79.9 65.9 223.8
07/05 22:10 7.1 69 5.38 1.8 4 6 1006.3 0.4 13.0 22.3 29.8 77.7 63.1 214.1
07/05 22:00 7.6 68 5.48 2.1 6 11 1006.4 0.4 13.2 22.4 30.0 78.2 64.0 217.2
07/05 21:50 7.3 69 5.45 2 7 9 1006.5 0.4 13.1 22.4 30.0 78.2 63.9 216.7
07/05 21:40 7.3 68 5.38 1.8 9 13 1006.7 0.4 13.0 22.3 29.7 77.5 63.0 213.6
07/05 21:30 7.4 67 5.33 1.7 7 15 1006.8 0.4 12.9 22.2 29.5 76.9 62.3 211.1
07/05 21:20 7.3 66 5.22 1.5 9 15 1007 0.4 12.6 22.1 29.1 75.9 61.0 206.6
07/05 21:10 7.5 66 5.29 1.5 9 13 1007.1 0.4 12.8 22.1 29.3 76.4 61.7 209.2
07/05 21:00 7.5 66 5.29 1.6 13 22 1007.3 0.4 12.8 22.1 29.3 76.5 61.7 209.2
07/05 20:50 7.5 65 5.21 1.3 13 15 1007.6 0.4 12.6 22.0 29.0 75.7 60.7 205.7
07/05 20:40 7.5 66 5.29 1.5 11 17 1007.9 0.4 12.8 22.2 29.3 76.5 61.8 209.3
07/05 20:30 7.7 64 5.19 1.3 11 19 1008.1 0.4 12.5 22.0 28.9 75.3 60.4 204.4
07/05 20:20 7.8 63 5.14 1.2 11 15 1008.3 0.4 12.4 21.9 28.7 74.8 59.7 202.0
07/05 20:10 7.9 65 5.34 1.7 15 19 1008.7 0.4 12.9 22.2 29.4 76.7 62.1 210.6
07/05 20:00 7.8 65 5.31 1.6 11 19 1008.8 0.4 12.8 22.1 29.3 76.5 61.8 209.6

Last Refresh: 08-May-2026 12:07:36

Bureau of Meteorology